Longview, North Carolina
Current Conditions -  °F | °C
As of 5:53 AM on Sunday 21 Dec 2014 (Local Time) from KHKY Reporting Station
Haze Haze  
Wind Chill: 40°   Ceiling: 1300
Heat Index: 40°   Visibility: 5mi
Dew Point: 36°   Wind: 0mph
Humidity: 86%   Direction: NA
Pressure: 30.22"   Gusts: NA
Location:  35.6584°N, 81.3878°W
Report Text: KHKY 211053Z AUTO 00000KT 5SM BR BKN013 OVC019 04/02 A3022 RMK AO2 SLP230 T00440022
Loading
Personal Weather Stations






























Interactive Weather Map New forecast layout! Learn more

10-Day Weather Forecast

Advertisements
Track Severe Weather on mobile